sensor_id;sensor_type;location;lat;lon;timestamp;P1;durP1;ratioP1;P2;durP2;ratioP2
21987;SDS011;11158;53.404;-1.510;2023-06-22T00:00:44;6.47;;;3.88;;
21987;SDS011;11158;53.404;-1.510;2023-06-22T00:03:28;5.03;;;3.58;;
21987;SDS011;11158;53.404;-1.510;2023-06-22T00:06:12;5.13;;;3.90;;
21987;SDS011;11158;53.404;-1.510;2023-06-22T00:08:56;5.00;;;3.88;;
21987;SDS011;11158;53.404;-1.510;2023-06-22T00:11:40;5.55;;;4.18;;
21987;SDS011;11158;53.404;-1.510;2023-06-22T00:14:24;6.97;;;4.03;;
21987;SDS011;11158;53.404;-1.510;2023-06-22T00:17:08;8.68;;;3.88;;
21987;SDS011;11158;53.404;-1.510;2023-06-22T00:19:53;6.18;;;4.13;;
21987;SDS011;11158;53.404;-1.510;2023-06-22T00:22:38;6.00;;;4.60;;
21987;SDS011;11158;53.404;-1.510;2023-06-22T00:25:22;5.30;;;3.90;;
21987;SDS011;11158;53.404;-1.510;2023-06-22T00:28:08;4.20;;;3.67;;
21987;SDS011;11158;53.404;-1.510;2023-06-22T00:30:53;6.00;;;3.72;;
21987;SDS011;11158;53.404;-1.510;2023-06-22T00:33:37;4.47;;;3.67;;
21987;SDS011;11158;53.404;-1.510;2023-06-22T00:36:22;5.88;;;4.13;;
21987;SDS011;11158;53.404;-1.510;2023-06-22T00:39:08;5.57;;;3.97;;
21987;SDS011;11158;53.404;-1.510;2023-06-22T00:41:52;7.45;;;4.45;;
21987;SDS011;11158;53.404;-1.510;2023-06-22T00:44:37;5.28;;;4.30;;
21987;SDS011;11158;53.404;-1.510;2023-06-22T00:47:21;6.57;;;3.92;;
21987;SDS011;11158;53.404;-1.510;2023-06-22T00:50:06;4.75;;;3.88;;
21987;SDS011;11158;53.404;-1.510;2023-06-22T00:52:51;4.28;;;3.83;;
21987;SDS011;11158;53.404;-1.510;2023-06-22T00:55:43;5.05;;;4.10;;
21987;SDS011;11158;53.404;-1.510;2023-06-22T00:58:35;4.13;;;3.40;;
21987;SDS011;11158;53.404;-1.510;2023-06-22T01:01:20;9.20;;;4.30;;
21987;SDS011;11158;53.404;-1.510;2023-06-22T01:04:07;6.68;;;4.00;;
21987;SDS011;11158;53.404;-1.510;2023-06-22T01:06:58;5.63;;;3.88;;
21987;SDS011;11158;53.404;-1.510;2023-06-22T01:13:04;4.53;;;3.95;;
21987;SDS011;11158;53.404;-1.510;2023-06-22T01:16:02;4.10;;;3.67;;
21987;SDS011;11158;53.404;-1.510;2023-06-22T01:18:50;5.18;;;4.00;;
21987;SDS011;11158;53.404;-1.510;2023-06-22T01:21:36;4.20;;;3.53;;
21987;SDS011;11158;53.404;-1.510;2023-06-22T01:30:15;8.00;;;3.90;;
21987;SDS011;11158;53.404;-1.510;2023-06-22T01:33:01;6.20;;;3.75;;
21987;SDS011;11158;53.404;-1.510;2023-06-22T01:35:48;5.65;;;3.72;;
21987;SDS011;11158;53.404;-1.510;2023-06-22T01:38:32;4.80;;;4.18;;
21987;SDS011;11158;53.404;-1.510;2023-06-22T01:41:17;5.25;;;3.70;;
21987;SDS011;11158;53.404;-1.510;2023-06-22T01:44:05;4.50;;;3.97;;
21987;SDS011;11158;53.404;-1.510;2023-06-22T01:46:52;6.88;;;3.88;;
21987;SDS011;11158;53.404;-1.510;2023-06-22T01:49:37;4.50;;;3.42;;
21987;SDS011;11158;53.404;-1.510;2023-06-22T01:52:21;4.10;;;3.30;;
21987;SDS011;11158;53.404;-1.510;2023-06-22T01:55:05;4.50;;;4.10;;
21987;SDS011;11158;53.404;-1.510;2023-06-22T01:57:51;5.97;;;3.40;;
21987;SDS011;11158;53.404;-1.510;2023-06-22T02:00:38;5.45;;;3.67;;
21987;SDS011;11158;53.404;-1.510;2023-06-22T02:03:31;6.90;;;3.75;;
21987;SDS011;11158;53.404;-1.510;2023-06-22T02:06:30;3.90;;;3.50;;
21987;SDS011;11158;53.404;-1.510;2023-06-22T02:09:20;5.22;;;3.70;;
21987;SDS011;11158;53.404;-1.510;2023-06-22T02:12:08;6.53;;;3.17;;
21987;SDS011;11158;53.404;-1.510;2023-06-22T02:14:55;5.85;;;3.25;;
21987;SDS011;11158;53.404;-1.510;2023-06-22T02:17:40;5.47;;;3.35;;
21987;SDS011;11158;53.404;-1.510;2023-06-22T02:20:28;5.53;;;3.80;;
21987;SDS011;11158;53.404;-1.510;2023-06-22T02:23:12;5.45;;;3.50;;
21987;SDS011;11158;53.404;-1.510;2023-06-22T02:25:56;3.80;;;3.22;;
21987;SDS011;11158;53.404;-1.510;2023-06-22T02:28:41;5.90;;;3.47;;
21987;SDS011;11158;53.404;-1.510;2023-06-22T02:31:25;3.72;;;3.40;;
21987;SDS011;11158;53.404;-1.510;2023-06-22T02:34:14;3.65;;;3.15;;
21987;SDS011;11158;53.404;-1.510;2023-06-22T02:37:02;5.20;;;3.60;;
21987;SDS011;11158;53.404;-1.510;2023-06-22T02:39:46;3.95;;;3.45;;
21987;SDS011;11158;53.404;-1.510;2023-06-22T02:42:30;3.60;;;3.10;;
21987;SDS011;11158;53.404;-1.510;2023-06-22T02:45:14;3.10;;;2.90;;
21987;SDS011;11158;53.404;-1.510;2023-06-22T02:47:58;3.80;;;3.38;;
21987;SDS011;11158;53.404;-1.510;2023-06-22T02:50:42;5.43;;;3.25;;
21987;SDS011;11158;53.404;-1.510;2023-06-22T02:53:27;3.85;;;3.00;;
21987;SDS011;11158;53.404;-1.510;2023-06-22T02:56:11;3.65;;;3.20;;
21987;SDS011;11158;53.404;-1.510;2023-06-22T02:58:56;5.43;;;3.40;;
21987;SDS011;11158;53.404;-1.510;2023-06-22T03:01:44;4.57;;;3.50;;
21987;SDS011;11158;53.404;-1.510;2023-06-22T03:04:28;4.72;;;3.13;;
21987;SDS011;11158;53.404;-1.510;2023-06-22T03:07:12;7.82;;;3.30;;
21987;SDS011;11158;53.404;-1.510;2023-06-22T03:09:56;3.28;;;2.97;;
21987;SDS011;11158;53.404;-1.510;2023-06-22T03:12:41;5.03;;;3.45;;
21987;SDS011;11158;53.404;-1.510;2023-06-22T03:15:26;4.25;;;3.28;;
21987;SDS011;11158;53.404;-1.510;2023-06-22T03:18:13;5.30;;;3.22;;
21987;SDS011;11158;53.404;-1.510;2023-06-22T03:20:57;3.75;;;3.42;;
21987;SDS011;11158;53.404;-1.510;2023-06-22T03:23:41;3.40;;;3.10;;
21987;SDS011;11158;53.404;-1.510;2023-06-22T03:26:26;3.53;;;2.90;;
21987;SDS011;11158;53.404;-1.510;2023-06-22T03:29:10;3.63;;;3.30;;
21987;SDS011;11158;53.404;-1.510;2023-06-22T03:31:54;5.72;;;3.55;;
21987;SDS011;11158;53.404;-1.510;2023-06-22T03:34:38;5.30;;;2.92;;
21987;SDS011;11158;53.404;-1.510;2023-06-22T03:37:22;5.20;;;3.13;;
21987;SDS011;11158;53.404;-1.510;2023-06-22T03:40:06;3.72;;;3.42;;
21987;SDS011;11158;53.404;-1.510;2023-06-22T03:42:51;5.88;;;3.17;;
21987;SDS011;11158;53.404;-1.510;2023-06-22T03:45:35;4.30;;;3.03;;
21987;SDS011;11158;53.404;-1.510;2023-06-22T03:48:19;4.38;;;3.20;;
21987;SDS011;11158;53.404;-1.510;2023-06-22T03:51:03;6.05;;;3.40;;
21987;SDS011;11158;53.404;-1.510;2023-06-22T03:53:47;3.42;;;2.78;;
21987;SDS011;11158;53.404;-1.510;2023-06-22T03:56:31;5.05;;;3.00;;
21987;SDS011;11158;53.404;-1.510;2023-06-22T03:59:16;5.05;;;3.08;;
21987;SDS011;11158;53.404;-1.510;2023-06-22T04:02:00;3.38;;;2.83;;
21987;SDS011;11158;53.404;-1.510;2023-06-22T04:04:44;3.28;;;2.92;;
21987;SDS011;11158;53.404;-1.510;2023-06-22T04:07:28;3.50;;;2.95;;
21987;SDS011;11158;53.404;-1.510;2023-06-22T04:10:12;5.03;;;3.00;;
21987;SDS011;11158;53.404;-1.510;2023-06-22T04:12:56;3.72;;;3.10;;
21987;SDS011;11158;53.404;-1.510;2023-06-22T04:15:40;3.40;;;2.90;;
21987;SDS011;11158;53.404;-1.510;2023-06-22T04:18:24;4.65;;;2.70;;
21987;SDS011;11158;53.404;-1.510;2023-06-22T04:21:09;3.83;;;2.95;;
21987;SDS011;11158;53.404;-1.510;2023-06-22T04:23:54;4.82;;;2.60;;
21987;SDS011;11158;53.404;-1.510;2023-06-22T04:26:38;4.95;;;3.30;;
21987;SDS011;11158;53.404;-1.510;2023-06-22T04:29:25;3.50;;;2.70;;
21987;SDS011;11158;53.404;-1.510;2023-06-22T04:32:12;4.75;;;2.67;;
21987;SDS011;11158;53.404;-1.510;2023-06-22T04:34:57;3.83;;;3.13;;
21987;SDS011;11158;53.404;-1.510;2023-06-22T04:37:41;3.58;;;3.15;;
21987;SDS011;11158;53.404;-1.510;2023-06-22T04:40:25;3.35;;;2.60;;
21987;SDS011;11158;53.404;-1.510;2023-06-22T04:43:09;3.78;;;2.83;;
21987;SDS011;11158;53.404;-1.510;2023-06-22T04:45:53;4.63;;;3.13;;
21987;SDS011;11158;53.404;-1.510;2023-06-22T04:48:37;5.72;;;3.00;;
21987;SDS011;11158;53.404;-1.510;2023-06-22T04:51:21;4.05;;;2.83;;
21987;SDS011;11158;53.404;-1.510;2023-06-22T04:54:06;3.00;;;2.67;;
21987;SDS011;11158;53.404;-1.510;2023-06-22T04:56:50;5.30;;;3.03;;
21987;SDS011;11158;53.404;-1.510;2023-06-22T04:59:40;3.83;;;2.78;;
21987;SDS011;11158;53.404;-1.510;2023-06-22T05:02:25;3.28;;;2.97;;
21987;SDS011;11158;53.404;-1.510;2023-06-22T05:05:12;5.07;;;2.85;;
21987;SDS011;11158;53.404;-1.510;2023-06-22T05:07:57;3.15;;;2.63;;
21987;SDS011;11158;53.404;-1.510;2023-06-22T05:10:44;3.40;;;3.10;;
21987;SDS011;11158;53.404;-1.510;2023-06-22T05:13:28;3.45;;;3.13;;
21987;SDS011;11158;53.404;-1.510;2023-06-22T05:16:12;5.55;;;2.97;;
21987;SDS011;11158;53.404;-1.510;2023-06-22T05:18:56;3.33;;;2.92;;
21987;SDS011;11158;53.404;-1.510;2023-06-22T05:21:40;3.88;;;2.70;;
21987;SDS011;11158;53.404;-1.510;2023-06-22T05:24:24;2.88;;;2.63;;
21987;SDS011;11158;53.404;-1.510;2023-06-22T05:27:09;3.72;;;2.65;;
21987;SDS011;11158;53.404;-1.510;2023-06-22T05:29:54;2.88;;;2.63;;
21987;SDS011;11158;53.404;-1.510;2023-06-22T05:32:38;5.50;;;2.72;;
21987;SDS011;11158;53.404;-1.510;2023-06-22T05:35:22;4.03;;;2.53;;
21987;SDS011;11158;53.404;-1.510;2023-06-22T05:38:06;5.90;;;2.80;;
21987;SDS011;11158;53.404;-1.510;2023-06-22T05:40:50;2.90;;;2.60;;
21987;SDS011;11158;53.404;-1.510;2023-06-22T05:43:34;2.78;;;2.58;;
21987;SDS011;11158;53.404;-1.510;2023-06-22T05:46:18;3.72;;;2.97;;
21987;SDS011;11158;53.404;-1.510;2023-06-22T05:49:03;4.60;;;2.63;;
21987;SDS011;11158;53.404;-1.510;2023-06-22T05:51:47;2.78;;;2.58;;
21987;SDS011;11158;53.404;-1.510;2023-06-22T05:54:31;2.88;;;2.58;;
21987;SDS011;11158;53.404;-1.510;2023-06-22T05:57:15;4.15;;;3.00;;
21987;SDS011;11158;53.404;-1.510;2023-06-22T05:59:59;5.38;;;2.70;;
21987;SDS011;11158;53.404;-1.510;2023-06-22T06:02:43;3.00;;;2.70;;
21987;SDS011;11158;53.404;-1.510;2023-06-22T06:05:27;3.88;;;2.70;;
21987;SDS011;11158;53.404;-1.510;2023-06-22T06:08:11;3.80;;;2.40;;
21987;SDS011;11158;53.404;-1.510;2023-06-22T06:10:56;4.70;;;2.60;;
21987;SDS011;11158;53.404;-1.510;2023-06-22T06:13:41;2.50;;;2.30;;
21987;SDS011;11158;53.404;-1.510;2023-06-22T06:16:25;3.17;;;2.42;;
21987;SDS011;11158;53.404;-1.510;2023-06-22T06:19:09;3.10;;;2.45;;
21987;SDS011;11158;53.404;-1.510;2023-06-22T06:21:53;4.28;;;2.50;;
21987;SDS011;11158;53.404;-1.510;2023-06-22T06:24:37;2.95;;;2.40;;
21987;SDS011;11158;53.404;-1.510;2023-06-22T06:27:21;3.50;;;2.42;;
21987;SDS011;11158;53.404;-1.510;2023-06-22T06:30:12;5.72;;;2.80;;
21987;SDS011;11158;53.404;-1.510;2023-06-22T06:32:58;3.40;;;2.30;;
21987;SDS011;11158;53.404;-1.510;2023-06-22T06:35:42;4.05;;;1.85;;
21987;SDS011;11158;53.404;-1.510;2023-06-22T06:38:27;2.25;;;2.05;;
21987;SDS011;11158;53.404;-1.510;2023-06-22T06:41:11;2.55;;;1.92;;
21987;SDS011;11158;53.404;-1.510;2023-06-22T06:43:55;2.78;;;2.30;;
21987;SDS011;11158;53.404;-1.510;2023-06-22T06:46:40;6.75;;;2.50;;
21987;SDS011;11158;53.404;-1.510;2023-06-22T06:49:25;3.70;;;2.13;;
21987;SDS011;11158;53.404;-1.510;2023-06-22T06:52:09;2.35;;;1.77;;
21987;SDS011;11158;53.404;-1.510;2023-06-22T06:54:53;2.17;;;1.95;;
21987;SDS011;11158;53.404;-1.510;2023-06-22T06:57:38;2.10;;;1.70;;
21987;SDS011;11158;53.404;-1.510;2023-06-22T07:00:22;3.05;;;1.95;;
21987;SDS011;11158;53.404;-1.510;2023-06-22T07:03:08;2.20;;;2.00;;
21987;SDS011;11158;53.404;-1.510;2023-06-22T07:05:52;3.13;;;2.25;;
21987;SDS011;11158;53.404;-1.510;2023-06-22T07:08:36;2.35;;;2.15;;
21987;SDS011;11158;53.404;-1.510;2023-06-22T07:11:21;4.38;;;2.63;;
21987;SDS011;11158;53.404;-1.510;2023-06-22T07:14:05;2.00;;;1.80;;
21987;SDS011;11158;53.404;-1.510;2023-06-22T07:16:49;2.65;;;2.20;;
21987;SDS011;11158;53.404;-1.510;2023-06-22T07:19:34;2.63;;;2.03;;
21987;SDS011;11158;53.404;-1.510;2023-06-22T07:22:18;2.38;;;2.00;;
21987;SDS011;11158;53.404;-1.510;2023-06-22T07:25:02;1.98;;;1.85;;
21987;SDS011;11158;53.404;-1.510;2023-06-22T07:28:02;2.30;;;2.10;;
21987;SDS011;11158;53.404;-1.510;2023-06-22T07:30:48;1.98;;;1.77;;
21987;SDS011;11158;53.404;-1.510;2023-06-22T07:33:32;3.95;;;2.40;;
21987;SDS011;11158;53.404;-1.510;2023-06-22T07:36:17;3.22;;;2.30;;
21987;SDS011;11158;53.404;-1.510;2023-06-22T07:39:02;3.80;;;2.28;;
21987;SDS011;11158;53.404;-1.510;2023-06-22T07:41:47;2.38;;;1.85;;
21987;SDS011;11158;53.404;-1.510;2023-06-22T07:44:31;5.07;;;2.38;;
21987;SDS011;11158;53.404;-1.510;2023-06-22T07:47:15;1.98;;;1.88;;
21987;SDS011;11158;53.404;-1.510;2023-06-22T07:50:02;3.75;;;1.73;;
21987;SDS011;11158;53.404;-1.510;2023-06-22T07:52:46;4.85;;;2.25;;
21987;SDS011;11158;53.404;-1.510;2023-06-22T07:55:31;3.72;;;2.55;;
21987;SDS011;11158;53.404;-1.510;2023-06-22T07:58:18;3.65;;;2.33;;
21987;SDS011;11158;53.404;-1.510;2023-06-22T08:01:04;2.63;;;2.40;;
21987;SDS011;11158;53.404;-1.510;2023-06-22T08:03:48;3.13;;;2.10;;
21987;SDS011;11158;53.404;-1.510;2023-06-22T08:06:33;5.65;;;2.47;;
21987;SDS011;11158;53.404;-1.510;2023-06-22T08:09:17;5.75;;;2.47;;
21987;SDS011;11158;53.404;-1.510;2023-06-22T08:12:01;2.92;;;2.38;;
21987;SDS011;11158;53.404;-1.510;2023-06-22T08:14:45;3.03;;;1.90;;
21987;SDS011;11158;53.404;-1.510;2023-06-22T08:17:30;4.10;;;2.28;;
21987;SDS011;11158;53.404;-1.510;2023-06-22T08:20:15;5.40;;;2.50;;
21987;SDS011;11158;53.404;-1.510;2023-06-22T08:22:59;2.55;;;1.98;;
21987;SDS011;11158;53.404;-1.510;2023-06-22T08:25:49;5.63;;;2.78;;
21987;SDS011;11158;53.404;-1.510;2023-06-22T08:28:34;6.28;;;3.05;;
21987;SDS011;11158;53.404;-1.510;2023-06-22T08:31:18;5.65;;;2.20;;
21987;SDS011;11158;53.404;-1.510;2023-06-22T08:34:02;5.55;;;2.78;;
21987;SDS011;11158;53.404;-1.510;2023-06-22T08:36:46;7.38;;;2.58;;
21987;SDS011;11158;53.404;-1.510;2023-06-22T08:39:35;4.38;;;2.88;;
21987;SDS011;11158;53.404;-1.510;2023-06-22T08:42:19;3.03;;;2.50;;
21987;SDS011;11158;53.404;-1.510;2023-06-22T08:45:04;5.47;;;3.08;;
21987;SDS011;11158;53.404;-1.510;2023-06-22T08:47:48;4.10;;;2.63;;
21987;SDS011;11158;53.404;-1.510;2023-06-22T08:50:32;6.30;;;2.60;;
21987;SDS011;11158;53.404;-1.510;2023-06-22T08:53:16;3.15;;;2.30;;
21987;SDS011;11158;53.404;-1.510;2023-06-22T08:56:01;4.40;;;3.03;;
21987;SDS011;11158;53.404;-1.510;2023-06-22T08:58:48;3.75;;;2.83;;
21987;SDS011;11158;53.404;-1.510;2023-06-22T09:01:32;3.53;;;3.22;;
21987;SDS011;11158;53.404;-1.510;2023-06-22T09:04:16;3.70;;;2.83;;
21987;SDS011;11158;53.404;-1.510;2023-06-22T09:07:01;4.28;;;3.47;;
21987;SDS011;11158;53.404;-1.510;2023-06-22T09:09:49;5.35;;;3.22;;
21987;SDS011;11158;53.404;-1.510;2023-06-22T09:12:33;4.57;;;3.55;;
21987;SDS011;11158;53.404;-1.510;2023-06-22T09:15:17;4.07;;;2.83;;
21987;SDS011;11158;53.404;-1.510;2023-06-22T09:18:02;4.97;;;3.35;;
21987;SDS011;11158;53.404;-1.510;2023-06-22T09:20:49;8.18;;;3.50;;
21987;SDS011;11158;53.404;-1.510;2023-06-22T09:23:33;4.53;;;3.47;;
21987;SDS011;11158;53.404;-1.510;2023-06-22T09:26:18;3.70;;;3.40;;
21987;SDS011;11158;53.404;-1.510;2023-06-22T09:29:06;4.57;;;3.47;;
21987;SDS011;11158;53.404;-1.510;2023-06-22T09:31:50;5.93;;;3.50;;
21987;SDS011;11158;53.404;-1.510;2023-06-22T09:34:37;4.43;;;3.30;;
21987;SDS011;11158;53.404;-1.510;2023-06-22T09:37:21;5.00;;;3.22;;
21987;SDS011;11158;53.404;-1.510;2023-06-22T09:40:05;4.57;;;3.30;;
21987;SDS011;11158;53.404;-1.510;2023-06-22T09:42:54;6.07;;;3.70;;
21987;SDS011;11158;53.404;-1.510;2023-06-22T09:45:41;4.28;;;3.15;;
21987;SDS011;11158;53.404;-1.510;2023-06-22T09:48:27;4.43;;;3.30;;
21987;SDS011;11158;53.404;-1.510;2023-06-22T09:51:19;4.70;;;3.08;;
21987;SDS011;11158;53.404;-1.510;2023-06-22T09:54:06;4.65;;;3.15;;
21987;SDS011;11158;53.404;-1.510;2023-06-22T09:56:52;5.45;;;3.20;;
21987;SDS011;11158;53.404;-1.510;2023-06-22T09:59:36;4.47;;;2.90;;
21987;SDS011;11158;53.404;-1.510;2023-06-22T10:02:21;4.70;;;2.92;;
21987;SDS011;11158;53.404;-1.510;2023-06-22T10:05:06;4.43;;;2.75;;
21987;SDS011;11158;53.404;-1.510;2023-06-22T10:07:51;5.22;;;3.15;;
21987;SDS011;11158;53.404;-1.510;2023-06-22T10:10:36;3.55;;;3.10;;
21987;SDS011;11158;53.404;-1.510;2023-06-22T10:13:20;4.03;;;3.20;;
21987;SDS011;11158;53.404;-1.510;2023-06-22T10:16:07;4.13;;;3.03;;
21987;SDS011;11158;53.404;-1.510;2023-06-22T10:18:52;4.13;;;3.50;;
21987;SDS011;11158;53.404;-1.510;2023-06-22T10:21:36;5.50;;;3.70;;
21987;SDS011;11158;53.404;-1.510;2023-06-22T10:24:20;5.22;;;3.55;;
21987;SDS011;11158;53.404;-1.510;2023-06-22T10:27:05;5.00;;;3.75;;
21987;SDS011;11158;53.404;-1.510;2023-06-22T10:29:49;5.70;;;4.13;;
21987;SDS011;11158;53.404;-1.510;2023-06-22T10:32:33;4.88;;;3.78;;
21987;SDS011;11158;53.404;-1.510;2023-06-22T10:35:18;4.78;;;4.20;;
21987;SDS011;11158;53.404;-1.510;2023-06-22T10:38:02;4.60;;;3.60;;
21987;SDS011;11158;53.404;-1.510;2023-06-22T10:40:47;5.63;;;4.72;;
21987;SDS011;11158;53.404;-1.510;2023-06-22T10:43:31;4.30;;;3.60;;
21987;SDS011;11158;53.404;-1.510;2023-06-22T10:46:16;7.28;;;4.55;;
21987;SDS011;11158;53.404;-1.510;2023-06-22T10:49:00;6.32;;;4.05;;
21987;SDS011;11158;53.404;-1.510;2023-06-22T10:51:45;5.82;;;4.15;;
21987;SDS011;11158;53.404;-1.510;2023-06-22T10:54:29;7.07;;;3.92;;
21987;SDS011;11158;53.404;-1.510;2023-06-22T10:57:13;7.68;;;4.38;;
21987;SDS011;11158;53.404;-1.510;2023-06-22T10:59:57;6.68;;;4.32;;
21987;SDS011;11158;53.404;-1.510;2023-06-22T11:02:41;9.75;;;4.10;;
21987;SDS011;11158;53.404;-1.510;2023-06-22T11:05:26;6.70;;;4.47;;
21987;SDS011;11158;53.404;-1.510;2023-06-22T11:08:10;5.45;;;4.90;;
21987;SDS011;11158;53.404;-1.510;2023-06-22T11:10:55;14.65;;;5.65;;
21987;SDS011;11158;53.404;-1.510;2023-06-22T11:13:39;5.88;;;3.97;;
21987;SDS011;11158;53.404;-1.510;2023-06-22T11:16:23;5.97;;;4.15;;
21987;SDS011;11158;53.404;-1.510;2023-06-22T11:19:08;5.65;;;3.55;;
21987;SDS011;11158;53.404;-1.510;2023-06-22T11:21:55;5.70;;;5.07;;
21987;SDS011;11158;53.404;-1.510;2023-06-22T11:24:40;6.13;;;4.70;;
21987;SDS011;11158;53.404;-1.510;2023-06-22T11:27:24;6.53;;;4.60;;
21987;SDS011;11158;53.404;-1.510;2023-06-22T11:30:09;5.20;;;4.70;;
21987;SDS011;11158;53.404;-1.510;2023-06-22T11:32:53;8.18;;;4.53;;
21987;SDS011;11158;53.404;-1.510;2023-06-22T11:35:37;5.57;;;4.72;;
21987;SDS011;11158;53.404;-1.510;2023-06-22T11:38:22;5.78;;;5.18;;
21987;SDS011;11158;53.404;-1.510;2023-06-22T11:41:06;7.20;;;4.95;;
21987;SDS011;11158;53.404;-1.510;2023-06-22T11:43:51;7.07;;;5.30;;
21987;SDS011;11158;53.404;-1.510;2023-06-22T11:46:35;6.38;;;5.72;;
21987;SDS011;11158;53.404;-1.510;2023-06-22T11:49:19;8.70;;;6.30;;
21987;SDS011;11158;53.404;-1.510;2023-06-22T11:52:03;11.32;;;6.72;;
21987;SDS011;11158;53.404;-1.510;2023-06-22T11:54:48;6.82;;;5.95;;
21987;SDS011;11158;53.404;-1.510;2023-06-22T11:57:33;8.48;;;6.55;;
21987;SDS011;11158;53.404;-1.510;2023-06-22T12:00:19;10.10;;;6.70;;
21987;SDS011;11158;53.404;-1.510;2023-06-22T12:03:07;6.97;;;6.28;;
21987;SDS011;11158;53.404;-1.510;2023-06-22T12:05:53;8.52;;;5.88;;
21987;SDS011;11158;53.404;-1.510;2023-06-22T12:08:37;6.70;;;6.05;;
21987;SDS011;11158;53.404;-1.510;2023-06-22T12:11:21;6.45;;;5.80;;
21987;SDS011;11158;53.404;-1.510;2023-06-22T12:14:06;7.85;;;6.30;;
21987;SDS011;11158;53.404;-1.510;2023-06-22T12:16:50;4.40;;;3.38;;
21987;SDS011;11158;53.404;-1.510;2023-06-22T12:19:35;4.25;;;3.60;;
21987;SDS011;11158;53.404;-1.510;2023-06-22T12:22:19;5.43;;;4.10;;
21987;SDS011;11158;53.404;-1.510;2023-06-22T12:25:03;4.45;;;3.88;;
21987;SDS011;11158;53.404;-1.510;2023-06-22T12:27:48;5.10;;;4.00;;
21987;SDS011;11158;53.404;-1.510;2023-06-22T12:30:33;4.75;;;4.20;;
21987;SDS011;11158;53.404;-1.510;2023-06-22T12:33:17;6.40;;;5.13;;
21987;SDS011;11158;53.404;-1.510;2023-06-22T12:36:02;9.00;;;5.90;;
21987;SDS011;11158;53.404;-1.510;2023-06-22T12:38:49;4.63;;;3.75;;
21987;SDS011;11158;53.404;-1.510;2023-06-22T12:41:35;5.15;;;4.28;;
21987;SDS011;11158;53.404;-1.510;2023-06-22T12:44:19;3.88;;;3.47;;
21987;SDS011;11158;53.404;-1.510;2023-06-22T12:47:03;4.63;;;4.20;;
21987;SDS011;11158;53.404;-1.510;2023-06-22T12:49:48;5.38;;;3.58;;
21987;SDS011;11158;53.404;-1.510;2023-06-22T12:52:32;3.90;;;3.40;;
21987;SDS011;11158;53.404;-1.510;2023-06-22T12:55:16;6.20;;;4.07;;
21987;SDS011;11158;53.404;-1.510;2023-06-22T12:58:00;3.55;;;3.15;;
21987;SDS011;11158;53.404;-1.510;2023-06-22T13:00:45;3.25;;;2.83;;
21987;SDS011;11158;53.404;-1.510;2023-06-22T13:03:30;3.35;;;3.05;;
21987;SDS011;11158;53.404;-1.510;2023-06-22T13:06:14;6.10;;;3.40;;
21987;SDS011;11158;53.404;-1.510;2023-06-22T13:08:58;7.63;;;3.03;;
21987;SDS011;11158;53.404;-1.510;2023-06-22T13:11:42;3.30;;;3.00;;
21987;SDS011;11158;53.404;-1.510;2023-06-22T13:14:27;3.40;;;2.80;;
21987;SDS011;11158;53.404;-1.510;2023-06-22T13:17:11;3.72;;;2.50;;
21987;SDS011;11158;53.404;-1.510;2023-06-22T13:19:56;5.18;;;3.20;;
21987;SDS011;11158;53.404;-1.510;2023-06-22T13:22:40;4.97;;;2.65;;
21987;SDS011;11158;53.404;-1.510;2023-06-22T13:25:26;2.63;;;2.42;;
21987;SDS011;11158;53.404;-1.510;2023-06-22T13:28:10;2.85;;;2.20;;
21987;SDS011;11158;53.404;-1.510;2023-06-22T13:30:57;2.28;;;2.10;;
21987;SDS011;11158;53.404;-1.510;2023-06-22T13:33:41;3.55;;;2.17;;
21987;SDS011;11158;53.404;-1.510;2023-06-22T13:36:25;4.13;;;2.13;;
21987;SDS011;11158;53.404;-1.510;2023-06-22T13:39:09;2.45;;;2.25;;
21987;SDS011;11158;53.404;-1.510;2023-06-22T13:41:53;2.30;;;2.10;;
21987;SDS011;11158;53.404;-1.510;2023-06-22T13:44:37;2.33;;;2.13;;
21987;SDS011;11158;53.404;-1.510;2023-06-22T13:47:21;2.83;;;2.03;;
21987;SDS011;11158;53.404;-1.510;2023-06-22T13:50:05;3.95;;;2.25;;
21987;SDS011;11158;53.404;-1.510;2023-06-22T13:52:50;1.95;;;1.77;;
21987;SDS011;11158;53.404;-1.510;2023-06-22T13:55:34;2.42;;;2.13;;
21987;SDS011;11158;53.404;-1.510;2023-06-22T13:58:18;3.08;;;2.00;;
21987;SDS011;11158;53.404;-1.510;2023-06-22T14:01:04;2.05;;;1.88;;
21987;SDS011;11158;53.404;-1.510;2023-06-22T14:03:48;2.35;;;2.10;;
21987;SDS011;11158;53.404;-1.510;2023-06-22T14:06:35;2.15;;;1.80;;
21987;SDS011;11158;53.404;-1.510;2023-06-22T14:09:19;2.97;;;2.13;;
21987;SDS011;11158;53.404;-1.510;2023-06-22T14:12:03;2.05;;;1.85;;
21987;SDS011;11158;53.404;-1.510;2023-06-22T14:14:49;2.47;;;2.10;;
21987;SDS011;11158;53.404;-1.510;2023-06-22T14:17:34;3.58;;;2.22;;
21987;SDS011;11158;53.404;-1.510;2023-06-22T14:20:18;2.00;;;1.80;;
21987;SDS011;11158;53.404;-1.510;2023-06-22T14:23:02;4.20;;;2.28;;
21987;SDS011;11158;53.404;-1.510;2023-06-22T14:25:46;2.65;;;2.05;;
21987;SDS011;11158;53.404;-1.510;2023-06-22T14:28:31;2.15;;;1.95;;
21987;SDS011;11158;53.404;-1.510;2023-06-22T14:31:16;4.35;;;1.90;;
21987;SDS011;11158;53.404;-1.510;2023-06-22T14:34:01;3.85;;;1.90;;
21987;SDS011;11158;53.404;-1.510;2023-06-22T14:36:47;2.15;;;1.77;;
21987;SDS011;11158;53.404;-1.510;2023-06-22T14:39:31;2.20;;;2.00;;
21987;SDS011;11158;53.404;-1.510;2023-06-22T14:42:15;3.75;;;2.03;;
21987;SDS011;11158;53.404;-1.510;2023-06-22T14:44:59;4.85;;;2.60;;
21987;SDS011;11158;53.404;-1.510;2023-06-22T14:47:43;4.30;;;2.30;;
21987;SDS011;11158;53.404;-1.510;2023-06-22T14:50:27;3.85;;;2.40;;
21987;SDS011;11158;53.404;-1.510;2023-06-22T14:53:11;3.90;;;2.35;;
21987;SDS011;11158;53.404;-1.510;2023-06-22T14:55:56;3.03;;;1.85;;
21987;SDS011;11158;53.404;-1.510;2023-06-22T14:58:40;2.33;;;2.13;;
21987;SDS011;11158;53.404;-1.510;2023-06-22T15:01:29;3.55;;;2.00;;
21987;SDS011;11158;53.404;-1.510;2023-06-22T15:04:13;2.58;;;2.22;;
21987;SDS011;11158;53.404;-1.510;2023-06-22T15:06:57;4.57;;;2.15;;
21987;SDS011;11158;53.404;-1.510;2023-06-22T15:09:41;2.50;;;1.90;;
21987;SDS011;11158;53.404;-1.510;2023-06-22T15:12:26;2.10;;;2.00;;
21987;SDS011;11158;53.404;-1.510;2023-06-22T15:15:11;2.40;;;2.10;;
21987;SDS011;11158;53.404;-1.510;2023-06-22T15:17:55;2.78;;;2.30;;
21987;SDS011;11158;53.404;-1.510;2023-06-22T15:20:38;2.38;;;2.17;;
21987;SDS011;11158;53.404;-1.510;2023-06-22T15:23:23;3.63;;;2.30;;
21987;SDS011;11158;53.404;-1.510;2023-06-22T15:26:06;2.92;;;2.53;;
21987;SDS011;11158;53.404;-1.510;2023-06-22T15:28:51;3.15;;;2.55;;
21987;SDS011;11158;53.404;-1.510;2023-06-22T15:31:35;2.67;;;2.38;;
21987;SDS011;11158;53.404;-1.510;2023-06-22T15:34:19;4.68;;;2.70;;
21987;SDS011;11158;53.404;-1.510;2023-06-22T15:37:03;5.30;;;2.60;;
21987;SDS011;11158;53.404;-1.510;2023-06-22T15:39:47;2.83;;;2.53;;
21987;SDS011;11158;53.404;-1.510;2023-06-22T15:42:31;2.75;;;2.20;;
21987;SDS011;11158;53.404;-1.510;2023-06-22T15:45:16;3.45;;;2.38;;
21987;SDS011;11158;53.404;-1.510;2023-06-22T15:47:59;2.85;;;2.30;;
21987;SDS011;11158;53.404;-1.510;2023-06-22T15:50:44;2.88;;;2.58;;
21987;SDS011;11158;53.404;-1.510;2023-06-22T15:53:28;3.60;;;2.50;;
21987;SDS011;11158;53.404;-1.510;2023-06-22T15:56:12;3.35;;;2.20;;
21987;SDS011;11158;53.404;-1.510;2023-06-22T15:58:56;6.53;;;2.58;;
21987;SDS011;11158;53.404;-1.510;2023-06-22T16:01:41;2.47;;;2.28;;
21987;SDS011;11158;53.404;-1.510;2023-06-22T16:04:25;3.17;;;2.17;;
21987;SDS011;11158;53.404;-1.510;2023-06-22T16:07:09;2.63;;;2.42;;
21987;SDS011;11158;53.404;-1.510;2023-06-22T16:09:54;4.93;;;2.45;;
21987;SDS011;11158;53.404;-1.510;2023-06-22T16:12:41;2.13;;;2.00;;
21987;SDS011;11158;53.404;-1.510;2023-06-22T16:15:25;2.75;;;2.30;;
21987;SDS011;11158;53.404;-1.510;2023-06-22T16:18:10;3.47;;;2.47;;
21987;SDS011;11158;53.404;-1.510;2023-06-22T16:20:54;2.90;;;2.20;;
21987;SDS011;11158;53.404;-1.510;2023-06-22T16:23:38;3.13;;;2.35;;
21987;SDS011;11158;53.404;-1.510;2023-06-22T16:26:23;2.80;;;2.47;;